Time;durP1;ratioP1;P1;durP2;ratioP2;P2;SDS_P1;SDS_P2;PMS_P1;PMS_P2;Temp;Humidity;BMP_temperature;BMP_pressure;BME280_temperature;BME280_humidity;BME280_pressure;Samples;Min_cycle;Max_cycle;Signal;HPM_P1;HPM_P2
2021/05/31 00:01:52;;;;;;;28.20;16.57;;;;;;;8.68;86.11;102375.59;4954887;29;20058;-79
2021/05/31 00:04:17;;;;;;;24.67;14.75;;;;;;;8.69;85.42;102385.31;4938012;29;20042;-79
2021/05/31 00:06:49;;;;;;;34.10;16.30;;;;;;;8.65;85.45;102380.19;4954652;29;20054;-80
2021/05/31 00:09:14;;;;;;;26.63;15.30;;;;;;;8.59;85.47;102380.63;4937969;29;20067;-79
2021/05/31 00:11:40;;;;;;;31.63;15.33;;;;;;;8.54;85.05;102379.25;4954697;29;20097;-78
2021/05/31 00:14:06;;;;;;;20.73;13.80;;;;;;;8.52;85.62;102376.72;4954583;29;20106;-79
2021/05/31 00:16:32;;;;;;;25.98;15.07;;;;;;;8.50;85.73;102377.75;4937400;29;20105;-79
2021/05/31 00:18:57;;;;;;;28.55;15.10;;;;;;;8.44;85.73;102377.25;4921693;29;20038;-79
2021/05/31 00:21:22;;;;;;;31.17;15.97;;;;;;;8.44;86.07;102371.91;4954440;29;20034;-78
2021/05/31 00:23:49;;;;;;;27.15;15.52;;;;;;;8.43;86.30;102377.38;4937637;29;20484;-79
2021/05/31 00:26:16;;;;;;;31.95;16.17;;;;;;;8.41;86.07;102372.16;4937469;29;20039;-78
2021/05/31 00:28:43;;;;;;;30.80;17.25;;;;;;;8.39;86.12;102370.53;4954330;29;20065;-79
2021/05/31 00:31:09;;;;;;;27.35;15.23;;;;;;;8.32;85.96;102366.59;4937150;29;20047;-78
2021/05/31 00:33:35;;;;;;;29.40;16.00;;;;;;;8.27;86.63;102369.56;4953971;29;20047;-78
2021/05/31 00:36:00;;;;;;;19.23;11.43;;;;;;;8.26;86.71;102359.88;4936882;29;20133;-78
2021/05/31 00:38:26;;;;;;;26.83;14.83;;;;;;;8.25;87.07;102367.00;4954081;29;20098;-78
2021/05/31 00:40:51;;;;;;;28.03;15.30;;;;;;;8.20;86.80;102363.84;4954048;29;20114;-78
2021/05/31 00:43:16;;;;;;;28.83;15.30;;;;;;;8.20;86.77;102355.84;4954036;29;20683;-77
2021/05/31 00:45:42;;;;;;;28.53;14.70;;;;;;;8.15;86.56;102349.16;4953106;29;20074;-77
2021/05/31 00:48:07;;;;;;;24.20;14.13;;;;;;;8.15;86.89;102344.69;4952774;28;20031;-78
2021/05/31 00:50:33;;;;;;;24.97;13.93;;;;;;;8.14;86.30;102350.09;4953884;29;20484;-78
2021/05/31 00:52:58;;;;;;;24.30;13.73;;;;;;;8.05;86.22;102338.28;4921293;29;20093;-78
2021/05/31 00:55:23;;;;;;;23.83;14.03;;;;;;;8.00;85.83;102346.59;4937021;29;20043;-77
2021/05/31 00:57:49;;;;;;;22.83;13.10;;;;;;;7.96;86.23;102341.59;4936688;29;20528;-77
2021/05/31 01:00:15;;;;;;;23.97;14.07;;;;;;;7.94;86.48;102348.84;4953787;29;20434;-77
2021/05/31 01:02:40;;;;;;;26.23;14.57;;;;;;;7.96;86.68;102347.78;4936835;29;20122;-78
2021/05/31 01:05:06;;;;;;;32.10;15.83;;;;;;;8.02;87.37;102347.34;4953776;29;20035;-78
2021/05/31 01:07:37;;;;;;;32.70;16.77;;;;;;;8.01;87.30;102345.66;4953414;29;20042;-77
2021/05/31 01:10:26;;;;;;;34.47;18.17;;;;;;;7.99;87.05;102336.91;4936834;29;20038;-78
2021/05/31 01:13:01;;;;;;;33.30;17.10;;;;;;;7.93;86.83;102332.00;4936499;29;20042;-77
2021/05/31 01:15:31;;;;;;;30.40;16.45;;;;;;;7.90;86.36;102334.91;4953615;29;20056;-77
2021/05/31 01:18:02;;;;;;;30.27;16.50;;;;;;;7.93;87.07;102337.34;4953182;29;20039;-77
2021/05/31 01:21:10;;;;;;;30.63;15.40;;;;;;;7.91;86.87;102331.25;4953544;29;20078;-77
2021/05/31 01:23:38;;;;;;;31.48;16.73;;;;;;;7.83;86.70;102328.31;4936461;29;20071;-77
2021/05/31 01:26:21;;;;;;;30.38;15.52;;;;;;;7.86;87.04;102327.22;4953135;29;20567;-77
2021/05/31 01:29:03;;;;;;;25.02;13.48;;;;;;;7.85;86.48;102331.72;4936595;29;20094;-78
2021/05/31 01:31:45;;;;;;;23.13;14.00;;;;;;;7.77;86.67;102328.72;4936431;29;20061;-78
2021/05/31 01:34:14;;;;;;;25.80;14.38;;;;;;;7.77;86.67;102326.06;4936492;29;20035;-77
2021/05/31 01:36:44;;;;;;;27.42;14.40;;;;;;;7.81;87.17;102328.41;4936198;29;20031;-77
2021/05/31 01:39:13;;;;;;;25.85;13.15;;;;;;;7.83;87.51;102321.16;4953269;29;20346;-77
2021/05/31 01:41:39;;;;;;;22.75;14.10;;;;;;;7.80;86.94;102325.88;4953230;29;20039;-77
2021/05/31 01:44:05;;;;;;;23.30;13.38;;;;;;;7.71;86.35;102324.69;4953056;29;20369;-78
2021/05/31 01:46:30;;;;;;;18.48;12.30;;;;;;;7.71;87.14;102326.50;4936064;29;20036;-77
2021/05/31 01:48:57;;;;;;;22.27;13.17;;;;;;;7.66;86.87;102332.13;4953170;29;20039;-77
2021/05/31 01:51:23;;;;;;;23.10;12.90;;;;;;;7.65;86.88;102330.41;4936275;29;20484;-77
2021/05/31 01:53:50;;;;;;;23.67;12.70;;;;;;;7.62;86.94;102327.97;4953035;29;20090;-77
2021/05/31 01:56:16;;;;;;;19.08;11.98;;;;;;;7.57;86.83;102325.63;4936020;29;20043;-77
2021/05/31 01:58:42;;;;;;;23.20;12.32;;;;;;;7.66;87.23;102325.97;4954544;28;20050;-77
2021/05/31 02:01:09;;;;;;;21.15;12.43;;;;;;;7.63;87.50;102326.16;4924159;29;20106;-77
2021/05/31 02:03:35;;;;;;;23.58;13.00;;;;;;;7.66;87.28;102326.81;4956818;29;20039;-77
2021/05/31 02:06:00;;;;;;;25.30;13.75;;;;;;;7.63;87.41;102328.81;4939774;29;20043;-77
2021/05/31 02:08:26;;;;;;;22.37;12.27;;;;;;;7.55;86.80;102326.69;4940004;29;20178;-77
2021/05/31 02:10:51;;;;;;;24.77;14.20;;;;;;;7.53;86.71;102326.78;4939915;29;20122;-77
2021/05/31 02:13:17;;;;;;;27.70;13.98;;;;;;;7.49;86.68;102325.31;4956524;29;20039;-78
2021/05/31 02:15:57;;;;;;;21.13;12.67;;;;;;;7.44;86.59;102322.09;4956524;29;20046;-77
2021/05/31 02:18:26;;;;;;;21.58;12.57;;;;;;;7.39;86.58;102325.03;4923980;29;20043;-77
2021/05/31 02:21:01;;;;;;;21.38;12.88;;;;;;;7.36;86.71;102325.25;4956527;29;20118;-77
2021/05/31 02:23:29;;;;;;;29.92;14.48;;;;;;;7.34;86.90;102328.97;4956510;29;20047;-77
2021/05/31 02:25:54;;;;;;;24.05;13.88;;;;;;;7.31;87.32;102318.56;4956251;29;20121;-77
2021/05/31 02:28:20;;;;;;;19.87;12.90;;;;;;;7.28;87.31;102332.03;4956447;29;20586;-77
2021/05/31 02:30:45;;;;;;;25.70;14.45;;;;;;;7.28;87.38;102321.41;4939576;29;20632;-77
2021/05/31 02:33:11;;;;;;;24.57;13.40;;;;;;;7.25;87.23;102321.63;4939456;29;20079;-77
2021/05/31 02:35:38;;;;;;;25.33;12.47;;;;;;;7.23;87.21;102319.06;4939456;29;20035;-77
2021/05/31 02:38:05;;;;;;;22.60;14.05;;;;;;;7.24;87.22;102325.25;4956093;29;20085;-77
2021/05/31 02:40:33;;;;;;;24.85;11.95;;;;;;;7.25;87.26;102322.47;4923550;29;20031;-77
2021/05/31 02:43:00;;;;;;;20.50;11.48;;;;;;;7.19;86.69;102320.25;4956210;29;20603;-77
2021/05/31 02:45:27;;;;;;;20.88;13.02;;;;;;;7.20;87.12;102324.59;4956139;29;20031;-77
2021/05/31 02:47:54;;;;;;;24.42;13.93;;;;;;;7.19;87.09;102318.44;4955863;29;20042;-77
2021/05/31 02:50:20;;;;;;;21.58;12.90;;;;;;;7.19;87.42;102321.09;4939091;29;20041;-77
2021/05/31 02:52:46;;;;;;;23.55;14.93;;;;;;;7.19;87.74;102328.22;4939194;29;20364;-77
2021/05/31 02:55:18;;;;;;;22.55;12.32;;;;;;;7.18;87.36;102326.50;4955803;29;20127;-76
2021/05/31 02:57:43;;;;;;;24.63;14.45;;;;;;;7.18;87.77;102331.78;4955767;29;20114;-77
2021/05/31 03:00:11;;;;;;;19.27;11.83;;;;;;;7.19;88.23;102329.06;4955906;29;20202;-77
2021/05/31 03:02:37;;;;;;;29.55;16.45;;;;;;;7.21;88.47;102328.09;4955905;29;20039;-77
2021/05/31 03:05:04;;;;;;;24.17;13.75;;;;;;;7.20;87.73;102324.59;4938811;29;20133;-77
2021/05/31 03:07:29;;;;;;;28.75;15.63;;;;;;;7.21;87.78;102336.06;4938510;29;20050;-77
2021/05/31 03:09:54;;;;;;;28.33;15.17;;;;;;;7.20;87.73;102329.91;4922225;29;20117;-77
2021/05/31 03:12:20;;;;;;;25.10;13.93;;;;;;;7.19;88.07;102329.06;4922992;29;20098;-77
2021/05/31 03:14:46;;;;;;;22.60;11.38;;;;;;;7.24;88.54;102325.25;4955500;29;20039;-77
2021/05/31 03:17:11;;;;;;;37.17;19.43;;;;;;;7.28;88.96;102326.72;4955248;29;20035;-77
2021/05/31 03:19:36;;;;;;;32.27;16.23;;;;;;;7.30;88.55;102332.78;4922739;29;20046;-76
2021/05/31 03:22:02;;;;;;;31.27;16.10;;;;;;;7.26;88.44;102332.16;4938555;29;20050;-77
2021/05/31 03:24:28;;;;;;;29.42;15.98;;;;;;;7.26;88.37;102340.13;4922751;29;20377;-77
2021/05/31 03:26:53;;;;;;;29.43;15.37;;;;;;;7.27;88.01;102335.66;4938278;29;20378;-76
2021/05/31 03:29:18;;;;;;;28.07;15.27;;;;;;;7.34;88.50;102336.94;4955290;29;20413;-77
2021/05/31 03:31:44;;;;;;;25.90;15.67;;;;;;;7.33;87.46;102329.94;4955588;29;20472;-76
2021/05/31 03:34:09;;;;;;;26.57;14.83;;;;;;;7.34;87.35;102331.63;4938250;29;20465;-76
2021/05/31 03:36:36;;;;;;;27.47;15.23;;;;;;;7.36;87.92;102329.72;4955005;29;20093;-77
2021/05/31 03:39:04;;;;;;;24.52;14.50;;;;;;;7.39;87.81;102324.19;4922642;29;20652;-76
2021/05/31 03:41:29;;;;;;;27.15;16.35;;;;;;;7.37;87.48;102323.44;4938264;29;20031;-76
2021/05/31 03:43:55;;;;;;;28.10;16.43;;;;;;;7.41;87.54;102322.28;4937977;29;20035;-78
2021/05/31 03:46:20;;;;;;;28.90;15.67;;;;;;;7.44;87.57;102316.75;4954803;29;20046;-77
2021/05/31 03:48:45;;;;;;;24.27;15.00;;;;;;;7.47;86.80;102321.91;4938067;29;20094;-77
2021/05/31 03:51:12;;;;;;;32.03;17.73;;;;;;;7.56;87.20;102318.63;4954824;29;20039;-76
2021/05/31 03:53:39;;;;;;;28.40;15.50;;;;;;;7.63;87.13;102310.19;4937903;29;20043;-77
2021/05/31 03:56:06;;;;;;;28.50;14.38;;;;;;;7.70;86.92;102317.66;4954417;29;20032;-77
2021/05/31 03:58:32;;;;;;;33.30;19.02;;;;;;;7.77;86.67;102315.41;4954548;29;20071;-77
2021/05/31 04:00:57;;;;;;;28.23;17.42;;;;;;;7.87;86.99;102319.16;4954729;29;20043;-76
2021/05/31 04:03:23;;;;;;;36.53;18.87;;;;;;;8.01;87.17;102315.53;4921900;29;20062;-77
2021/05/31 04:06:16;;;;;;;28.57;17.27;;;;;;;8.12;86.72;102322.75;4954392;29;20318;-76
2021/05/31 04:14:11;;;;;;;29.83;16.77;;;;;;;8.38;85.48;102313.78;4937458;29;20377;-78
2021/05/31 04:16:39;;;;;;;24.52;14.90;;;;;;;8.53;85.41;102317.19;4937292;29;20118;-77
2021/05/31 04:19:06;;;;;;;28.15;15.60;;;;;;;8.66;85.54;102322.44;4954407;29;20114;-77
2021/05/31 04:21:31;;;;;;;32.17;15.98;;;;;;;8.82;86.42;102317.72;4921672;29;20086;-76
2021/05/31 04:23:57;;;;;;;32.25;19.73;;;;;;;8.96;86.58;102315.84;4954422;29;20035;-77
2021/05/31 04:26:24;;;;;;;27.40;16.67;;;;;;;9.11;86.33;102321.84;4953110;29;20377;-77
2021/05/31 04:28:50;;;;;;;34.17;18.98;;;;;;;9.25;87.13;102311.88;4937124;29;20031;-77
2021/05/31 04:31:16;;;;;;;32.80;18.83;;;;;;;9.41;87.43;102308.03;4954256;29;20057;-77
2021/05/31 04:33:42;;;;;;;31.05;17.55;;;;;;;9.49;86.10;102309.16;4954100;29;20043;-77
2021/05/31 04:36:07;;;;;;;34.05;17.80;;;;;;;9.67;87.02;102308.72;4953793;29;20053;-77
2021/05/31 04:38:33;;;;;;;31.20;18.40;;;;;;;9.75;86.04;102310.78;4937246;29;20043;-77
2021/05/31 04:40:58;;;;;;;34.27;18.43;;;;;;;9.88;85.68;102312.38;4954119;29;20035;-77
2021/05/31 04:43:24;;;;;;;35.10;18.53;;;;;;;10.01;85.66;102306.91;4921097;29;20039;-77
2021/05/31 04:45:49;;;;;;;36.10;19.90;;;;;;;10.14;85.47;102301.47;4953922;29;20528;-77
2021/05/31 04:48:15;;;;;;;31.17;16.95;;;;;;;10.30;85.07;102306.44;4953927;29;20039;-77
2021/05/31 04:50:40;;;;;;;31.23;18.80;;;;;;;10.44;85.36;102308.00;4954016;29;20101;-77
2021/05/31 04:53:06;;;;;;;30.73;18.97;;;;;;;10.62;84.83;102298.53;4953956;29;20385;-77
2021/05/31 04:55:31;;;;;;;32.67;18.87;;;;;;;10.78;83.97;102303.47;4953925;29;20035;-77
2021/05/31 04:57:56;;;;;;;38.27;18.90;;;;;;;10.96;83.24;102298.44;4936256;29;20477;-77
2021/05/31 05:00:22;;;;;;;28.53;16.83;;;;;;;11.14;83.07;102306.72;4953786;29;20042;-77
2021/05/31 05:02:47;;;;;;;28.97;16.93;;;;;;;11.37;82.90;102308.31;4953649;29;20045;-77
2021/05/31 05:05:13;;;;;;;29.87;18.47;;;;;;;11.57;81.90;102305.78;4936787;29;20129;-77
2021/05/31 05:07:45;;;;;;;28.15;15.05;;;;;;;11.78;81.00;102303.94;4920828;29;20175;-77
2021/05/31 05:10:18;;;;;;;23.40;13.65;;;;;;;11.81;75.67;102311.69;4953669;29;20071;-77
2021/05/31 05:12:51;;;;;;;18.80;11.68;;;;;;;12.02;74.51;102305.50;4953424;29;20042;-77
2021/05/31 05:15:20;;;;;;;19.27;11.43;;;;;;;12.16;70.77;102298.94;4953547;29;20046;-78
2021/05/31 05:17:47;;;;;;;20.63;11.32;;;;;;;12.31;72.47;102307.44;4936302;29;20046;-78
2021/05/31 05:20:14;;;;;;;20.33;12.00;;;;;;;12.55;70.32;102305.28;4953528;29;20046;-78
2021/05/31 05:22:40;;;;;;;20.52;11.05;;;;;;;12.86;69.54;102302.50;4936671;29;20097;-78
2021/05/31 05:25:06;;;;;;;15.57;9.55;;;;;;;12.99;68.49;102304.91;4953339;29;20110;-78
2021/05/31 05:27:31;;;;;;;15.85;10.05;;;;;;;13.45;67.92;102298.84;4953016;29;20477;-78
2021/05/31 05:29:57;;;;;;;17.27;9.07;;;;;;;13.73;64.72;102307.81;4936628;29;20082;-78
2021/05/31 05:32:22;;;;;;;17.13;9.10;;;;;;;14.78;63.89;102313.88;4953611;29;20039;-78
2021/05/31 05:34:49;;;;;;;15.13;8.73;;;;;;;15.81;58.01;102300.78;4954122;29;20137;-78
2021/05/31 05:37:21;;;;;;;9.95;7.80;;;;;;;15.90;57.68;102302.53;4954861;29;20384;-78
2021/05/31 05:43:02;;;;;;;15.15;7.60;;;;;;;15.68;54.59;102306.56;4954065;29;20050;-78
2021/05/31 05:48:11;;;;;;;9.60;6.00;;;;;;;16.50;51.32;102301.59;4952874;29;20055;-78
2021/05/31 05:50:36;;;;;;;11.80;6.93;;;;;;;17.27;50.07;102302.25;4953490;29;20051;-78
2021/05/31 05:53:02;;;;;;;11.77;5.93;;;;;;;17.05;49.53;102294.84;4936741;29;20034;-79
2021/05/31 05:55:27;;;;;;;9.32;5.22;;;;;;;17.16;49.29;102307.13;4936463;29;20472;-78
2021/05/31 05:57:55;;;;;;;7.17;5.43;;;;;;;17.94;49.25;102306.59;4953072;29;20043;-78
2021/05/31 06:00:23;;;;;;;8.88;5.18;;;;;;;17.73;47.39;102305.25;4936298;29;20027;-79
2021/05/31 06:02:48;;;;;;;7.35;4.10;;;;;;;18.07;44.61;102312.25;4953403;29;20070;-78
2021/05/31 06:05:14;;;;;;;7.25;4.75;;;;;;;17.41;45.29;102308.00;4936360;29;20622;-79
2021/05/31 06:07:40;;;;;;;9.60;4.07;;;;;;;15.70;49.10;102311.78;4936641;29;20114;-78
2021/05/31 06:10:06;;;;;;;9.07;4.20;;;;;;;15.92;49.66;102314.00;4936405;29;20465;-79
2021/05/31 06:12:32;;;;;;;6.68;4.28;;;;;;;16.63;48.10;102311.94;4953313;29;20122;-79
2021/05/31 06:14:57;;;;;;;7.13;3.33;;;;;;;17.57;44.88;102307.97;4936334;29;20549;-79
2021/05/31 06:17:23;;;;;;;6.67;3.50;;;;;;;17.58;45.09;102306.13;4953251;29;20039;-79
2021/05/31 06:19:48;;;;;;;8.17;3.20;;;;;;;16.59;46.05;102311.41;4936004;29;20043;-78
2021/05/31 06:22:14;;;;;;;3.57;3.17;;;;;;;16.20;47.51;102311.09;4919461;29;20642;-79
2021/05/31 06:24:40;;;;;;;11.02;4.00;;;;;;;16.65;46.66;102309.91;4951726;29;20461;-79
2021/05/31 06:27:05;;;;;;;7.30;3.33;;;;;;;15.91;48.59;102311.44;4935376;29;20385;-80
2021/05/31 06:29:31;;;;;;;9.68;3.83;;;;;;;16.54;46.99;102310.22;4934996;29;20039;-78
2021/05/31 06:31:56;;;;;;;6.47;3.10;;;;;;;17.34;46.16;102315.91;4951898;29;20183;-79
2021/05/31 06:34:22;;;;;;;4.90;3.07;;;;;;;18.18;44.87;102316.47;4935049;29;20473;-80
2021/05/31 06:36:48;;;;;;;8.57;3.33;;;;;;;17.73;45.21;102316.06;4952799;29;20365;-79
2021/05/31 06:39:14;;;;;;;7.65;3.67;;;;;;;17.80;45.89;102315.38;4935807;29;20106;-79
2021/05/31 06:41:40;;;;;;;8.07;3.63;;;;;;;18.22;45.18;102314.28;4953011;29;20122;-79
2021/05/31 06:44:06;;;;;;;5.70;3.60;;;;;;;18.11;44.09;102308.22;4952777;28;20510;-79
2021/05/31 06:46:32;;;;;;;7.38;2.88;;;;;;;19.10;43.15;102302.28;4955076;29;20043;-79
2021/05/31 06:48:57;;;;;;;4.53;2.67;;;;;;;18.22;43.64;102306.16;4939340;29;20049;-79
2021/05/31 06:51:23;;;;;;;4.78;3.13;;;;;;;17.32;44.15;102306.31;4939186;29;20046;-78
2021/05/31 06:53:49;;;;;;;5.22;3.00;;;;;;;18.16;45.32;102304.97;4954892;29;20086;-79
2021/05/31 06:56:16;;;;;;;5.50;2.83;;;;;;;18.97;41.94;102319.97;4938476;29;20050;-79
2021/05/31 06:58:42;;;;;;;5.47;2.90;;;;;;;19.83;40.71;102308.94;4938616;29;20043;-79
2021/05/31 07:01:09;;;;;;;6.05;2.95;;;;;;;20.54;40.55;102306.50;4954507;29;20098;-79
2021/05/31 07:03:36;;;;;;;23.45;4.00;;;;;;;20.16;38.42;102306.66;4955473;29;20039;-79
2021/05/31 07:06:01;;;;;;;6.25;2.85;;;;;;;20.07;41.14;102306.97;4922375;29;20556;-80
2021/05/31 07:08:27;;;;;;;6.77;2.60;;;;;;;20.44;41.36;102312.25;4939042;29;20057;-80
2021/05/31 07:10:54;;;;;;;4.82;2.72;;;;;;;21.03;39.85;102304.97;4955710;29;20054;-80
2021/05/31 07:13:20;;;;;;;3.88;2.67;;;;;;;21.24;37.78;102304.13;4955646;29;20114;-80
2021/05/31 07:15:58;;;;;;;8.57;3.97;;;;;;;20.92;39.47;102305.50;4938624;29;20039;-80
2021/05/31 07:18:24;;;;;;;3.95;2.80;;;;;;;20.10;42.35;102299.28;4955902;29;20035;-80
2021/05/31 07:20:52;;;;;;;6.28;3.00;;;;;;;20.55;39.76;102297.31;4955427;29;20039;-79
2021/05/31 07:23:18;;;;;;;5.32;3.70;;;;;;;20.11;42.60;102300.97;4955568;29;20043;-80
2021/05/31 07:25:43;;;;;;;6.07;3.55;;;;;;;20.61;38.92;102299.31;4955529;29;20028;-80
2021/05/31 07:28:09;;;;;;;10.43;2.88;;;;;;;20.77;41.55;102290.09;4922515;29;20109;-80
2021/05/31 07:30:34;;;;;;;4.93;3.33;;;;;;;19.97;40.16;102293.66;4938585;29;20038;-79
2021/05/31 07:33:00;;;;;;;6.22;2.92;;;;;;;19.91;41.00;102297.16;4954587;29;20038;-80
2021/05/31 07:35:26;;;;;;;3.95;3.15;;;;;;;20.07;41.98;102296.13;4938380;29;20046;-80
2021/05/31 07:37:52;;;;;;;7.32;3.35;;;;;;;19.59;41.06;102291.84;4938354;29;20034;-80
2021/05/31 07:40:18;;;;;;;3.80;2.60;;;;;;;19.28;42.44;102300.09;4955398;29;20058;-81
2021/05/31 07:42:44;;;;;;;4.28;2.60;;;;;;;19.03;43.55;102287.78;4955422;29;20054;-80
2021/05/31 07:45:11;;;;;;;5.65;3.30;;;;;;;18.92;45.86;102287.19;4938456;29;20039;-80
2021/05/31 07:47:37;;;;;;;3.20;2.55;;;;;;;19.02;41.92;102284.25;4955031;29;20496;-80
2021/05/31 07:50:05;;;;;;;4.60;3.20;;;;;;;18.92;43.51;102289.06;4954250;29;20077;-80
2021/05/31 07:52:30;;;;;;;6.35;3.17;;;;;;;19.08;42.11;102288.06;4955387;29;20310;-81
2021/05/31 07:54:56;;;;;;;2.80;2.37;;;;;;;18.84;42.33;102292.66;4938245;29;20495;-80
2021/05/31 07:57:24;;;;;;;6.65;2.75;;;;;;;18.88;43.21;102287.72;4937864;29;20039;-80
2021/05/31 07:59:50;;;;;;;5.75;2.50;;;;;;;19.21;42.42;102282.91;4955206;29;20031;-80
2021/05/31 08:02:16;;;;;;;7.70;2.83;;;;;;;19.54;42.71;102283.44;4938452;29;20046;-81
2021/05/31 08:04:42;;;;;;;4.13;2.77;;;;;;;19.66;41.43;102280.28;4955017;29;20397;-80
2021/05/31 08:07:11;;;;;;;6.22;2.78;;;;;;;20.03;41.14;102277.50;4937686;29;20039;-80
2021/05/31 08:09:37;;;;;;;3.97;2.75;;;;;;;20.31;41.57;102279.53;4938032;29;20035;-79
2021/05/31 08:12:03;;;;;;;;;;;;;;;20.14;39.64;102278.91;4938331;29;20038;-80
2021/05/31 08:14:28;;;;;;;;;;;;;;;20.13;42.12;102271.78;4922448;29;19926;-80
2021/05/31 08:16:54;;;;;;;;;;;;;;;19.57;40.20;102261.41;4954892;29;19918;-80
2021/05/31 08:19:20;;;;;;;4.17;2.57;;;;;;;20.09;39.73;102270.50;4937752;29;19918;-80
2021/05/31 08:21:47;;;;;;;6.22;2.75;;;;;;;19.36;38.59;102266.69;4937807;29;20039;-80
2021/05/31 08:24:12;;;;;;;5.70;2.70;;;;;;;19.78;38.20;102260.69;4937743;29;20500;-80
2021/05/31 08:26:42;;;;;;;4.20;2.30;;;;;;;19.53;39.80;102264.66;4921632;29;20178;-80
2021/05/31 08:29:07;;;;;;;7.82;3.10;;;;;;;19.57;39.55;102260.53;4953656;29;20418;-80
2021/05/31 08:31:33;;;;;;;2.40;2.10;;;;;;;20.84;37.98;102263.03;4954546;29;20043;-80
2021/05/31 08:33:59;;;;;;;4.43;2.70;;;;;;;20.81;36.40;102268.81;4954499;29;20135;-81
2021/05/31 08:36:24;;;;;;;5.57;2.60;;;;;;;21.47;37.66;102266.72;4954144;29;20045;-81
2021/05/31 08:38:53;;;;;;;3.83;2.13;;;;;;;21.78;35.32;102259.19;4954344;29;20078;-81
2021/05/31 08:41:18;;;;;;;4.20;2.25;;;;;;;21.71;38.59;102259.16;4921680;29;20040;-81
2021/05/31 08:43:43;;;;;;;3.65;2.80;;;;;;;20.94;40.29;102258.09;4954284;29;20093;-81
2021/05/31 08:46:09;;;;;;;4.50;2.57;;;;;;;21.34;38.25;102255.72;4921671;29;20090;-81
2021/05/31 08:48:36;;;;;;;6.23;3.23;;;;;;;20.82;41.06;102257.78;4954295;29;20035;-81
2021/05/31 08:51:01;;;;;;;7.22;3.05;;;;;;;20.95;38.84;102251.63;4937537;29;20636;-81
2021/05/31 08:53:27;;;;;;;4.90;2.60;;;;;;;20.74;38.90;102257.91;4954235;29;20062;-81
2021/05/31 08:55:52;;;;;;;3.73;2.63;;;;;;;21.83;38.96;102254.81;4954065;29;20449;-81
2021/05/31 08:58:19;;;;;;;3.60;2.67;;;;;;;22.36;36.14;102253.38;4954089;29;20031;-81
2021/05/31 09:00:44;;;;;;;5.22;2.25;;;;;;;21.58;34.60;102256.34;4937201;29;20129;-81
2021/05/31 09:03:10;;;;;;;4.22;2.42;;;;;;;21.90;36.17;102250.25;4921220;29;20149;-81
2021/05/31 09:05:41;;;;;;;7.50;2.60;;;;;;;21.97;34.66;102247.56;4954084;29;20031;-81
2021/05/31 09:08:08;;;;;;;3.67;2.08;;;;;;;21.38;35.63;102248.88;4952276;28;20098;-81
2021/05/31 09:10:36;;;;;;;3.80;2.40;;;;;;;22.33;34.12;102246.47;4937353;29;20039;-81
2021/05/31 09:13:02;;;;;;;5.70;2.42;;;;;;;21.98;33.03;102245.69;4936979;29;20374;-81
2021/05/31 09:15:28;;;;;;;5.75;2.53;;;;;;;21.31;33.87;102242.53;4954055;29;20027;-81
2021/05/31 09:17:53;;;;;;;4.90;2.97;;;;;;;21.53;34.70;102246.06;4936899;29;20035;-81
2021/05/31 09:20:19;;;;;;;6.50;2.17;;;;;;;22.63;33.03;102243.44;4954015;29;20035;-82
2021/05/31 09:22:45;;;;;;;5.97;2.70;;;;;;;22.73;34.18;102247.44;4954044;29;20046;-82
2021/05/31 09:25:29;;;;;;;2.92;2.00;;;;;;;23.81;32.41;102238.16;4937283;29;20226;-82
2021/05/31 09:27:57;;;;;;;4.88;2.53;;;;;;;23.36;32.44;102238.03;4953650;29;20039;-82
2021/05/31 09:30:38;;;;;;;3.65;2.38;;;;;;;23.36;34.40;102246.19;4937035;29;20042;-81
2021/05/31 09:33:07;;;;;;;5.07;2.40;;;;;;;23.45;31.49;102239.47;4953900;29;20507;-81
2021/05/31 09:35:32;;;;;;;5.40;2.28;;;;;;;24.28;33.22;102244.28;4936669;29;20035;-82
2021/05/31 09:38:02;;;;;;;3.53;2.27;;;;;;;24.89;32.98;102234.69;4936673;29;20039;-82
2021/05/31 09:40:27;;;;;;;6.20;2.60;;;;;;;25.02;33.24;102229.09;4936827;29;20035;-83
2021/05/31 09:42:55;;;;;;;4.50;2.42;;;;;;;25.26;32.65;102240.25;4954098;29;20050;-83
2021/05/31 09:45:21;;;;;;;6.57;2.38;;;;;;;25.79;31.75;102231.50;4954604;29;20814;-85
2021/05/31 09:47:47;;;;;;;5.30;2.20;;;;;;;25.76;30.30;102223.75;4937490;29;20130;-85
2021/05/31 09:50:22;;;;;;;10.27;3.53;;;;;;;25.98;30.85;102237.81;4938119;29;20138;-85
2021/05/31 09:52:58;;;;;;;4.38;2.20;;;;;;;25.94;30.58;102228.41;4954790;29;20043;-86
2021/05/31 09:55:31;;;;;;;6.80;2.85;;;;;;;25.58;31.12;102224.59;4954708;29;20054;-86
2021/05/31 09:57:56;;;;;;;6.80;3.08;;;;;;;25.84;32.37;102219.88;4954568;29;20187;-86
2021/05/31 10:00:27;;;;;;;4.17;2.53;;;;;;;26.11;32.92;102228.63;4938209;29;20061;-88
2021/05/31 10:07:55;;;;;;;4.60;3.10;;;;;;;25.41;30.70;102220.78;4937802;29;20034;-86
2021/05/31 10:10:20;;;;;;;4.22;3.10;;;;;;;25.72;32.98;102219.81;4954750;29;20039;-86
2021/05/31 10:12:46;;;;;;;11.27;2.90;;;;;;;25.11;32.28;102213.25;4953830;29;20489;-86
2021/05/31 10:15:13;;;;;;;9.55;2.78;;;;;;;26.02;30.20;102217.16;4922163;29;20203;-86
2021/05/31 10:17:38;;;;;;;;;;;;;;;24.12;31.66;102210.16;4937832;29;20137;-85
2021/05/31 10:20:05;;;;;;;4.93;2.63;;;;;;;23.28;35.68;102211.84;4939998;29;19978;-85
2021/05/31 10:22:32;;;;;;;5.13;2.72;;;;;;;25.10;32.63;102206.13;4958405;29;20039;-85
2021/05/31 10:25:03;;;;;;;4.28;2.50;;;;;;;25.67;30.67;102205.97;4958123;29;20090;-85
2021/05/31 10:27:30;;;;;;;2.97;2.60;;;;;;;25.39;31.03;102201.88;4958025;29;20050;-85
2021/05/31 10:29:58;;;;;;;3.85;2.55;;;;;;;24.84;31.83;102198.97;4958319;29;20043;-86
2021/05/31 10:32:24;;;;;;;3.58;2.80;;;;;;;25.83;31.39;102196.34;4958272;29;20135;-85
2021/05/31 10:34:52;;;;;;;7.20;2.65;;;;;;;26.17;31.45;102204.97;4958094;29;20126;-85
2021/05/31 10:37:26;;;;;;;4.80;3.28;;;;;;;26.82;31.62;102199.56;4958122;29;20125;-89
2021/05/31 10:40:12;;;;;;;4.60;2.95;;;;;;;26.70;31.95;102201.47;4958345;29;20050;-89
2021/05/31 10:42:39;;;;;;;6.38;3.40;;;;;;;26.73;30.75;102190.03;4925543;29;20098;-90
2021/05/31 10:45:19;;;;;;;4.78;2.90;;;;;;;26.28;29.50;102193.22;4957123;29;20023;-88
2021/05/31 10:47:59;;;;;;;4.50;2.92;;;;;;;26.44;30.63;102191.75;4957146;29;20050;-88
2021/05/31 10:50:35;;;;;;;4.78;3.13;;;;;;;26.83;30.13;102184.81;4941430;29;20035;-90
2021/05/31 10:53:00;;;;;;;5.03;3.65;;;;;;;27.02;32.14;102182.81;4957978;29;20445;-89
2021/05/31 10:55:28;;;;;;;3.58;2.42;;;;;;;26.22;30.50;102178.59;4957915;29;20071;-90
2021/05/31 10:57:56;;;;;;;5.30;3.22;;;;;;;26.81;29.91;102178.75;4940827;29;20047;-91
2021/05/31 11:00:24;;;;;;;4.03;3.10;;;;;;;26.44;30.72;102183.53;4924886;29;20035;-90
2021/05/31 11:02:50;;;;;;;5.97;2.67;;;;;;;27.10;30.88;102173.38;4925241;29;20035;-91
2021/05/31 11:05:16;;;;;;;4.32;2.83;;;;;;;27.15;29.60;102181.72;4957950;29;20031;-92
2021/05/31 11:07:42;;;;;;;5.13;3.10;;;;;;;26.17;30.31;102172.94;4956697;29;20468;-91
2021/05/31 11:10:16;;;;;;;10.15;3.17;;;;;;;25.45;30.84;102178.25;4941250;29;20133;-90
2021/05/31 11:12:42;;;;;;;4.35;3.15;;;;;;;26.02;30.94;102186.22;4941193;29;20046;-91
2021/05/31 11:15:13;;;;;;;4.88;2.58;;;;;;;26.21;30.38;102171.41;4957630;29;20049;-90
2021/05/31 11:17:51;;;;;;;4.75;3.05;;;;;;;26.37;30.50;102169.94;4940293;29;20039;-91
2021/05/31 11:20:17;;;;;;;4.47;2.58;;;;;;;27.38;29.67;102169.09;4939968;29;20158;-90
2021/05/31 11:22:53;;;;;;;5.95;3.45;;;;;;;27.49;28.94;102171.00;4957248;29;20027;-90
2021/05/31 11:25:20;;;;;;;6.18;3.17;;;;;;;26.78;29.45;102168.22;4940526;29;20049;-90
2021/05/31 11:27:52;;;;;;;4.07;3.00;;;;;;;25.82;30.25;102165.38;4940364;29;20057;-91
2021/05/31 11:30:21;;;;;;;3.75;3.08;;;;;;;26.41;28.91;102168.41;4956945;28;20130;-91
2021/05/31 11:32:47;;;;;;;2.88;2.30;;;;;;;25.32;29.76;102167.47;4956710;29;20235;-90
2021/05/31 11:35:15;;;;;;;5.57;2.67;;;;;;;24.99;28.63;102165.88;4957005;29;20039;-90
2021/05/31 11:37:43;;;;;;;5.10;3.20;;;;;;;25.40;29.25;102164.44;4940118;29;20298;-91
2021/05/31 11:40:33;;;;;;;3.78;2.67;;;;;;;25.70;27.32;102162.59;4956825;29;20031;-91